Frey Ranch - Fallon, Nevada Weather observations

Data are for observation ending at time listed.
 Day   Time    Ave.   Ave.  Ave.  Vector   Max.   Stn.    Total    Solar   Ave.  
  of    of     Air    Rel.  Wind   Wind    Wind   Baro.  Precip.   Rad.    Soil  
Year   Day     Temp.  Hum.  Speed  Dir.    Gust   Pres.                    Temp. 
2014   (PST)    F      %     mph   deg.    mph     mb.     in.     W/m2     F   
------------------------------------------------------------------------------
 112   17:40   50.1    29   13.8   281     22.2   999.0    0.00      58    63.8
 112   17:50   49.9    30   15.6   272     23.3   999.0    0.00      58    63.9
 112   18:00   49.5    30   14.6   277     21.8   999.0    0.00      42    63.9
 112   18:10   49.2    30   11.6   287     19.2   999.0    0.00      43    63.9
 112   18:20   48.9    27    9.5   306     17.1   999.0    0.00      21    64.0
 112   18:30   48.1    28    8.2   298     14.2   999.0    0.00       6    64.0
 112   18:40   47.2    31    6.9   290     10.8   999.0    0.00       2    64.0
 112   18:50   46.6    29    7.4   297     12.5   999.0    0.00       0    64.0
 112   19:00   45.6    34    4.5   302      7.4   999.0    0.00       0    64.0
 112   19:10   45.3    39    3.8   322      9.0   999.0    0.00       0    64.1
 112   19:20   44.6    43    1.4   314      4.5   999.0    0.00       0    64.1
 112   19:30   43.8    46    1.5   300      2.8   999.0    0.00       0    64.1
 112   19:40   43.0    48    2.8   285      4.9   999.0    0.00       0    64.1
 112   19:50   41.9    53    3.4   291      4.3   999.0    0.00       0    64.1
 112   20:00   42.2    49    4.0   305      6.9   999.0    0.00       0    64.1
 112   20:10   42.3    47    2.8   300      5.0   999.0    0.00       0    64.1
 112   20:20   41.0    49    3.0   301      4.8   999.0    0.00       0    64.1
 112   20:30   40.0    50    3.2   304      4.9   999.0    0.00       0    64.1
 112   20:40   40.3    47    1.0   348      4.3   999.0    0.00       0    64.1
 112   20:50   40.1    48    0.1   342      1.9   999.0    0.00       0    64.1
 112   21:00   40.4    50    1.1   313      3.4   999.0    0.00       0    64.1
 112   21:10   39.2    55    1.4   310      2.6   999.0    0.00       0    64.1
 112   21:20   39.6    49    0.2   323      1.5   999.0    0.00       0    64.1
 112   21:30   39.6    49    0.3   322      1.6   999.0    0.00       0    64.0
 112   21:40   39.5    46    1.7   325      2.6   999.0    0.00       0    64.0
 112   21:50   40.5    45    1.7   327      2.9   999.0    0.00       0    64.0
 112   22:00   39.8    47    0.3   300      1.2   999.0    0.00       0    64.0
 112   22:10   37.6    45    3.2   160      5.3   999.0    0.00       0    64.0
 112   22:20   35.6    56    1.2   170      2.5   999.0    0.00       0    63.9
 112   22:30   36.3    60    0.9   189      1.6   999.0    0.00       0    63.9
 112   22:40   37.2    55    0.0     0      0.0   999.0    0.00       0    63.9
 112   22:50   37.0    54    2.2   102      5.3   999.0    0.00       0    63.8
 112   23:00   37.5    51    0.6    85      1.8   999.0    0.00       0    63.8
 112   23:10   38.1    53    0.0     0      0.0   999.0    0.00       0    63.8
 112   23:20   38.4    56    1.2    86      2.2   999.0    0.00       0    63.7
 112   23:30   38.1    64    1.8    86      2.4   999.0    0.00       0    63.7
 112   23:40   37.5    53    1.6    95      4.8   999.0    0.00       0    63.7
 112   23:50   38.2    51    1.4    97      2.6   999.0    0.00       0    63.6
 113    0:00   38.7    55    1.8    96      2.7   999.0    0.00       0    63.6
 113    0:10   38.6    58    1.1    63      1.7   999.0    0.00       0    63.5
 113    0:20   38.8    54    0.4    63      1.4   999.0    0.00       0    63.5
 113    0:30   38.9    52    1.1    63      2.0   999.0    0.00       0    63.4
 113    0:40   38.3    56    1.5    63      1.9   999.0    0.00       0    63.4
 113    0:50   38.1    53    1.9   226      4.2   999.0    0.00       0    63.4
 113    1:00   38.2    53    0.1   230      0.8   999.0    0.00       0    63.3
 113    1:10   38.3    50    0.2   230      1.1   999.0    0.00       0    63.3
 113    1:20   38.9    47    0.0   230      0.5   999.0    0.00       0    63.2
 113    1:30   38.6    53    0.2   139      4.3   999.0    0.00       0    63.2
 113    1:40   36.0    56    3.3   135      5.1   999.0    0.00       0    63.1
 113    1:50   35.3    58    1.6   134      3.3   999.0    0.00       0    63.1
 113    2:00   35.9    54    1.2   138      2.0   999.0    0.00       0    63.0
 113    2:10   35.8    54    0.0     0      0.0   999.0    0.00       0    63.0
 113    2:20   36.6    46    0.5   137      1.6   999.0    0.00       0    62.9
 113    2:30   35.8    55    1.2   127      3.7   999.0    0.00       0    62.9
 113    2:40   35.2    55    0.8   127      1.7   999.0    0.00       0    62.8
 113    2:50   35.2    56    1.0   127      2.2   999.0    0.00       0    62.8
 113    3:00   34.3    60    0.1   127      1.5   999.0    0.00       0    62.7
 113    3:10   34.2    58    1.3   127      2.0   999.0    0.00       0    62.7
 113    3:20   34.2    61    1.9   128      2.6   999.0    0.00       0    62.6
 113    3:30   34.6    55    0.7   102      3.7   999.0    0.00       0    62.6
 113    3:40   33.2    61    2.0    56      4.2   999.0    0.00       0    62.5
 113    3:50   31.9    60    2.4    59      4.5   999.0    0.00       0    62.5
 113    4:00   32.2    58    1.2    44      3.0   999.0    0.00       0    62.4
 113    4:10   30.7    60    1.8   118      3.9   999.0    0.00       0    62.4
 113    4:20   29.1    64    0.2   117      1.5   999.0    0.00       0    62.3
 113    4:30   29.4    66    0.9   119      1.6   999.0    0.00       0    62.3
 113    4:40   30.7    63    1.4   120      2.0   999.0    0.00       0    62.2
 113    4:50   31.3    68    1.9   141      2.5   999.0    0.00       1    62.2
 113    5:00   30.8    69    1.6   141      2.7   999.0    0.00       6    62.1
 113    5:10   30.9    67    1.0   213      2.8   999.0    0.00      13    62.0
 113    5:20   32.8    59    0.8   235      1.7   999.0    0.00      26    62.0
 113    5:30   34.0    59    0.9   235      1.4   999.0    0.00      49    61.9
 113    5:40   34.9    58    0.9   235      1.8   999.0    0.00      80    61.9
 113    5:50   35.7    54    0.8   235      1.8   999.0    0.00     116    61.8
 113    6:00   36.9    47    0.9   234      1.7   999.0    0.00     152    61.8
 113    6:10   37.2    51    1.4   215      2.4   999.0    0.00     185    61.7
 113    6:20   38.2    53    2.4   214      3.6   999.0    0.00     216    61.7
 113    6:30   39.6    47    2.1   220      3.3   999.0    0.00     248    61.6
 113    6:40   41.3    43    1.6   228      2.5   999.0    0.00     272    61.6
 113    6:50   42.6    42    1.7   235      3.1   999.0    0.00     319    61.5
 113    7:00   44.9    37    1.1   160      3.7   999.0    0.00     355    61.4
 113    7:10   45.9    37    1.5   150      4.3   999.0    0.00     384    61.4
 113    7:20   45.8    38    3.4   129      5.9   999.0    0.00     422    61.3
 113    7:30   45.9    37    3.3   141      6.7   999.0    0.00     460    61.3
 113    7:40   46.6    36    4.1   143      7.6   999.0    0.00     494    61.2
 113    7:50   47.1    35    3.6   145      7.5   999.0    0.00     528    61.2
 113    8:00   47.8    34    3.9   127      7.6   999.0    0.00     562    61.1
 113    8:10   48.9    33    3.0   124      6.9   999.0    0.00     594    61.0
 113    8:20   48.5    33    3.6    94      8.2   999.0    0.00     627    61.0
 113    8:30   48.7    32    3.9   107      8.6   999.0    0.00     658    60.9
 113    8:40   49.9    31    3.1   149      9.3   999.0    0.00     688    60.9
 113    8:50   50.3    31    4.3   192      9.1   999.0    0.00     717    60.8
 113    9:00   48.9    32    6.1   217     10.1   999.0    0.00     747    60.8
 113    9:10   49.0    32    3.4   270      6.5   999.0    0.00     776    60.7
 113    9:20   50.5    30    2.4   302      7.4   999.0    0.00     812    60.7
 113    9:30   51.5    28    2.8   105      5.9   999.0    0.00     842    60.7
 113    9:40   52.0    27    3.9    82      8.5   999.0    0.00     853    60.6
 113    9:50   51.9    27    3.5    71      7.6   999.0    0.00     872    60.6
 113   10:00   51.8    28    4.3   200      7.4   999.0    0.00     890    60.5
 113   10:10   52.1    26    6.4   171     10.8   999.0    0.00     909    60.5
 113   10:20   51.2    27    5.9   105     13.7   999.0    0.00     927    60.5
 113   10:30   52.6    28    3.6   279     14.9   999.0    0.00     941    60.5
 113   10:40   52.6    29    5.6   270     13.0   999.0    0.00     956    60.5
 113   10:50   52.9    30    5.6   283     12.5   999.0    0.00     969    60.4
 113   11:00   53.6    30    6.5   274     13.8   999.0    0.00     978    60.4
 113   11:10   54.0    28    4.8   291     12.5   999.0    0.00     987    60.4
 113   11:20   53.6    28    5.0   297     11.2   999.0    0.00     995    60.4
 113   11:30   54.3    28    4.6   284     10.9   999.0    0.00     999    60.4
 113   11:40   55.5    26    4.5   211     11.2   999.0    0.00    1002    60.4
 113   11:50   56.7    25    3.1   352      7.5   999.0    0.00     998    60.5
 113   12:00   56.7    23    5.7   171     13.8   999.0    0.00     996    60.5
 113   12:10   56.4    25    4.2   277     11.0   999.0    0.00    1003    60.5
 113   12:20   56.5    24    4.2   320      9.0   999.0    0.00    1003    60.5
 113   12:30   57.2    22    3.6   247      9.3   999.0    0.00     993    60.5
 113   12:40   57.0    23    4.2   236      7.9   999.0    0.00     973    60.6
 113   12:50   58.6    21    1.6   310      4.3   999.0    0.00     967    60.6
 113   13:00   59.5    22    2.8   248      7.3   999.0    0.00     956    60.6
 113   13:10   60.2    21    4.4   105     11.4   999.0    0.00     946    60.7
 113   13:20   59.3    20    5.3   126     11.9   999.0    0.00     939    60.7
 113   13:30   59.0    20    6.0   132     11.7   999.0    0.00     921    60.8
 113   13:40   59.8    20    3.9    95     10.4   999.0    0.00     881    60.8
 113   13:50   60.8    19    2.5    58      7.5   999.0    0.00     884    60.9
 113   14:00   61.4    19    5.3    72     12.1   999.0    0.00     850    60.9
 113   14:10   61.9    18    5.2    73     11.2   999.0    0.00     826    61.0
 113   14:20   62.3    19    2.6    16      7.8   999.0    0.00     810    61.1
 113   14:30   63.0    18    2.6    64     10.4   999.0    0.00     775    61.1
 113   14:40   61.7    18    4.7    86     12.1   999.0    0.00     745    61.2
 113   14:50   62.2    18    5.5    62     12.0   999.0    0.00     725    61.3
 113   15:00   62.9    17    3.2    59      7.9   999.0    0.00     683    61.3
 113   15:10   62.2    18    4.1    79     10.9   999.0    0.00     663    61.4
 113   15:20   63.0    17    4.1    61     11.2   999.0    0.00     641    61.5
 113   15:30   64.1    16    2.3    25      6.2   999.0    0.00     615    61.6
 113   15:40   64.1    16    2.6    39      6.3   999.0    0.00     578    61.6
 113   15:50   64.4    16    3.4    52     10.1   999.0    0.00     535    61.7
 113   16:00   63.4    17    2.3    40      5.9   999.0    0.00     509    61.8
 113   16:10   62.9    17    4.3    68      8.6   999.0    0.00     473    61.9
 113   16:20   62.7    17    3.5    68      8.8   999.0    0.00     437    61.9
 113   16:30   62.4    17    4.0    68      9.0   999.0    0.00     377    62.0
 113   16:40   63.0    17    3.8    56      8.8   999.0    0.00     347    62.1
 113   16:50   61.7    17    5.2    78      8.5   999.0    0.00     319    62.2
 113   17:00   62.1    18    3.6    69      7.2   999.0    0.00     277    62.3
 113   17:10   62.0    17    3.3    68      7.6   999.0    0.00     237    62.3
 113   17:20   62.4    18    3.0    71      7.4   999.0    0.00     194    62.4
 113   17:30   61.2    21    3.3    58      7.3   999.0    0.00     174    62.5

Return to Frey Ranch - Fallon, Nevada graphs page.


Western Regional Climate Center,wrcc@dri.edu